createdAt,value
2022-09-15T00:02:17.103Z,20.19
2022-09-15T00:07:20.733Z,20.10
2022-09-15T00:12:25.514Z,20.04
2022-09-15T00:17:29.055Z,19.89
2022-09-15T00:22:32.570Z,19.91
2022-09-15T00:27:37.374Z,19.72
2022-09-15T00:32:40.832Z,19.78
2022-09-15T00:37:44.191Z,19.89
2022-09-15T00:42:49.119Z,19.71
2022-09-15T00:47:53.050Z,19.67
2022-09-15T00:52:59.366Z,19.76
2022-09-15T00:58:06.558Z,19.86
2022-09-15T01:03:09.942Z,19.90
2022-09-15T01:08:18.536Z,19.89
2022-09-15T01:13:23.329Z,19.78
2022-09-15T01:18:32.163Z,19.67
2022-09-15T01:24:08.586Z,19.52
2022-09-15T01:29:52.432Z,19.53
2022-09-15T01:35:00.154Z,19.54
2022-09-15T01:40:05.048Z,19.39
2022-09-15T01:45:12.195Z,19.24
2022-09-15T01:50:18.793Z,19.17
2022-09-15T01:55:24.507Z,19.11
2022-09-15T02:00:30.559Z,18.99
2022-09-15T02:05:37.087Z,18.99
2022-09-15T02:10:47.161Z,18.88
2022-09-15T02:15:54.664Z,18.83
2022-09-15T02:21:08.065Z,18.73
2022-09-15T02:26:14.623Z,18.65
2022-09-15T02:31:21.304Z,18.56
2022-09-15T02:36:25.602Z,18.47
2022-09-15T02:41:29.122Z,18.42
2022-09-15T02:46:34.025Z,18.30
2022-09-15T02:51:37.478Z,18.25
2022-09-15T02:56:41.033Z,18.15
2022-09-15T03:01:45.902Z,18.05
2022-09-15T03:06:49.376Z,18.04
2022-09-15T03:11:52.778Z,17.94
2022-09-15T03:16:58.229Z,18.10
2022-09-15T03:22:01.719Z,18.13
2022-09-15T03:27:05.989Z,18.19
2022-09-15T03:32:10.919Z,18.17
2022-09-15T03:37:14.400Z,18.20
2022-09-15T03:42:19.612Z,18.14
2022-09-15T03:47:24.418Z,18.15
2022-09-15T03:52:28.469Z,18.22
2022-09-15T03:57:31.863Z,18.22
2022-09-15T04:02:36.678Z,18.20
2022-09-15T04:07:40.196Z,18.16
2022-09-15T04:12:44.291Z,18.24
2022-09-15T04:17:49.335Z,18.19
2022-09-15T04:22:52.719Z,18.34
2022-09-15T04:27:57.346Z,18.18
2022-09-15T04:33:02.648Z,18.30
2022-09-15T04:38:06.279Z,18.40
2022-09-15T04:43:09.677Z,18.49
2022-09-15T04:48:14.530Z,18.49
2022-09-15T04:53:18.144Z,18.55
2022-09-15T04:58:21.502Z,18.67
2022-09-15T05:03:26.303Z,18.91
2022-09-15T05:08:29.987Z,19.05
2022-09-15T05:13:34.270Z,19.11
2022-09-15T05:18:39.415Z,19.20
2022-09-15T05:23:43.678Z,19.35
2022-09-15T05:28:47.342Z,19.36
2022-09-15T05:33:52.977Z,18.97
2022-09-15T05:38:57.419Z,19.19
2022-09-15T05:44:00.838Z,19.39
2022-09-15T05:49:07.433Z,19.69
2022-09-15T05:54:11.296Z,19.77
2022-09-15T05:59:14.862Z,19.77
2022-09-15T06:04:19.611Z,19.86
2022-09-15T06:09:23.266Z,20.08
2022-09-15T06:14:26.833Z,19.96
2022-09-15T06:19:31.605Z,19.91
2022-09-15T06:24:34.947Z,20.10
2022-09-15T06:29:38.294Z,19.44
2022-09-15T06:34:43.017Z,19.94
2022-09-15T06:39:46.402Z,20.02
2022-09-15T06:44:50.143Z,19.38
2022-09-15T06:49:55.669Z,20.24
2022-09-15T06:54:59.028Z,20.44
2022-09-15T07:00:02.921Z,20.30
2022-09-15T07:05:08.411Z,20.50
2022-09-15T07:10:11.729Z,20.46
2022-09-15T07:15:15.176Z,20.82
2022-09-15T07:20:19.964Z,20.56
2022-09-15T07:25:23.355Z,20.10
2022-09-15T07:30:26.694Z,20.82
2022-09-15T07:35:31.505Z,21.31
2022-09-15T07:40:35.054Z,21.45
2022-09-15T07:45:38.541Z,21.53
2022-09-15T07:50:47.266Z,21.20
2022-09-15T07:55:53.218Z,21.91
2022-09-15T08:01:02.625Z,21.26
2022-09-15T08:06:07.863Z,21.37
2022-09-15T08:11:18.438Z,21.87
2022-09-15T08:16:24.713Z,21.25
2022-09-15T08:21:29.883Z,22.22
2022-09-15T08:26:33.310Z,21.99
2022-09-15T08:31:36.756Z,22.20
2022-09-15T08:36:41.750Z,22.00
2022-09-15T08:41:46.765Z,22.09
2022-09-15T08:46:53.993Z,22.60
2022-09-15T08:52:04.742Z,22.94
2022-09-15T08:57:12.783Z,22.70
2022-09-15T09:02:47.624Z,23.05
2022-09-15T09:08:08.756Z,22.23
2022-09-15T09:13:21.667Z,23.12
2022-09-15T09:18:49.746Z,22.95
2022-09-15T09:23:58.471Z,23.15
2022-09-15T09:29:03.014Z,22.86
2022-09-15T09:34:13.052Z,22.89
2022-09-15T09:39:17.749Z,23.45
2022-09-15T09:44:31.530Z,23.96
2022-09-15T09:49:36.022Z,23.40
2022-09-15T09:54:42.194Z,23.72
2022-09-15T09:59:47.150Z,23.82
2022-09-15T10:04:52.656Z,24.16
2022-09-15T10:09:59.356Z,24.49
2022-09-15T10:15:05.556Z,24.71
2022-09-15T10:20:28.169Z,24.75
2022-09-15T10:25:58.653Z,25.09
2022-09-15T10:31:03.977Z,25.09
2022-09-15T10:36:12.397Z,23.18
2022-09-15T10:41:23.455Z,24.05
2022-09-15T10:46:29.207Z,23.53
2022-09-15T10:51:43.164Z,23.82
2022-09-15T10:56:50.281Z,22.19
2022-09-15T11:02:20.578Z,21.55
2022-09-15T11:07:30.515Z,21.82
2022-09-15T11:12:44.838Z,23.24
2022-09-15T11:18:04.192Z,23.76
2022-09-15T11:23:12.935Z,24.06
2022-09-15T11:28:21.335Z,23.86
2022-09-15T11:33:29.009Z,23.85
2022-09-15T11:38:37.049Z,24.10
2022-09-15T11:43:46.195Z,23.61
2022-09-15T11:48:54.345Z,24.26
2022-09-15T11:54:02.699Z,23.24
2022-09-15T11:59:16.026Z,24.04
2022-09-15T12:04:23.327Z,22.45
2022-09-15T12:09:26.923Z,22.20
2022-09-15T12:14:33.991Z,21.24
2022-09-15T12:19:51.561Z,22.49
2022-09-15T12:25:01.314Z,21.95
2022-09-15T12:30:07.649Z,22.36
2022-09-15T12:35:33.125Z,21.23
2022-09-15T12:40:37.884Z,22.48
2022-09-15T12:45:44.934Z,22.04
2022-09-15T12:50:54.441Z,22.29
2022-09-15T12:55:59.856Z,22.18
2022-09-15T13:01:34.341Z,23.11
2022-09-15T13:06:38.435Z,24.45
2022-09-15T13:11:43.047Z,24.64
2022-09-15T13:16:53.771Z,24.25
2022-09-15T13:22:00.292Z,23.06
2022-09-15T13:27:04.842Z,23.45
2022-09-15T13:32:17.093Z,23.34
2022-09-15T13:43:10.043Z,23.67
2022-09-15T13:48:49.776Z,23.19
2022-09-15T13:53:54.775Z,23.02
2022-09-15T13:59:09.901Z,23.89
2022-09-15T14:04:17.877Z,24.11
2022-09-15T14:09:24.977Z,23.79
2022-09-15T14:14:37.093Z,23.95
2022-09-15T14:19:43.368Z,24.21
2022-09-15T14:24:48.152Z,24.00
2022-09-15T14:29:55.130Z,24.84
2022-09-15T14:35:00.883Z,24.53
2022-09-15T14:40:19.200Z,24.59
2022-09-15T14:50:59.325Z,23.75
2022-09-15T14:56:08.212Z,23.36
2022-09-15T15:01:15.615Z,22.46
2022-09-15T15:06:30.504Z,22.96
2022-09-15T15:11:34.847Z,22.86
2022-09-15T15:16:38.325Z,24.30
2022-09-15T15:21:44.560Z,23.35
2022-09-15T15:26:49.013Z,23.81
2022-09-15T15:31:52.842Z,23.39
2022-09-15T15:37:04.673Z,22.83
2022-09-15T15:42:08.979Z,21.60
2022-09-15T15:47:25.511Z,22.75
2022-09-15T15:52:30.289Z,22.59
2022-09-15T15:57:36.147Z,22.13
2022-09-15T16:02:39.533Z,23.33
2022-09-15T16:07:46.167Z,22.89
2022-09-15T16:12:49.666Z,23.35
2022-09-15T16:17:53.179Z,23.36
2022-09-15T16:22:58.076Z,22.71
2022-09-15T16:28:01.879Z,22.43
2022-09-15T16:33:05.437Z,22.53
2022-09-15T16:38:10.290Z,22.76
2022-09-15T16:43:14.559Z,22.41
2022-09-15T16:48:18.040Z,22.38
2022-09-15T16:53:23.231Z,22.27
2022-09-15T16:58:26.806Z,21.93
2022-09-15T17:03:30.535Z,22.39
2022-09-15T17:08:35.378Z,22.28
2022-09-15T17:13:38.762Z,22.24
2022-09-15T17:18:42.144Z,22.14
2022-09-15T17:23:48.337Z,22.51
2022-09-15T17:28:51.843Z,22.61
2022-09-15T17:33:55.249Z,22.31
2022-09-15T17:39:00.090Z,21.43
2022-09-15T17:44:03.554Z,21.07
2022-09-15T17:49:06.898Z,21.46
2022-09-15T17:54:12.217Z,21.21
2022-09-15T17:59:16.286Z,20.96
2022-09-15T18:04:19.915Z,21.28
2022-09-15T18:09:25.235Z,19.86
2022-09-15T18:14:28.566Z,20.10
2022-09-15T18:19:32.074Z,21.00
2022-09-15T18:24:36.788Z,20.93
2022-09-15T18:29:40.159Z,20.64
2022-09-15T18:34:43.577Z,20.69
2022-09-15T18:39:48.301Z,20.68
2022-09-15T18:44:51.867Z,20.45
2022-09-15T18:49:55.376Z,20.49
2022-09-15T18:55:00.378Z,20.23
2022-09-15T19:00:04.960Z,20.21
2022-09-15T19:05:11.128Z,19.97
2022-09-15T19:10:17.281Z,19.83
2022-09-15T19:15:23.754Z,20.16
2022-09-15T19:20:27.381Z,20.22
2022-09-15T19:25:32.112Z,20.23
2022-09-15T19:30:35.910Z,20.25
2022-09-15T19:35:42.429Z,20.02
2022-09-15T19:40:47.431Z,19.90
2022-09-15T19:45:50.818Z,19.96
2022-09-15T19:50:54.590Z,19.60
2022-09-15T19:55:59.339Z,19.64
2022-09-15T20:01:03.048Z,19.75
2022-09-15T20:06:08.304Z,19.17
2022-09-15T20:11:13.088Z,19.67
2022-09-15T20:16:18.131Z,19.68
2022-09-15T20:21:45.827Z,19.66
2022-09-15T20:26:48.399Z,19.77
2022-09-15T20:31:52.247Z,19.53
2022-09-15T20:36:55.646Z,19.84
2022-09-15T20:42:00.417Z,19.84
2022-09-15T20:47:03.851Z,19.93
2022-09-15T20:52:07.472Z,19.72
2022-09-15T20:57:12.269Z,20.10
2022-09-15T21:02:15.695Z,19.49
2022-09-15T21:07:19.182Z,19.61
2022-09-15T21:12:24.041Z,19.14
2022-09-15T21:17:28.907Z,19.32
2022-09-15T21:22:32.379Z,19.06
2022-09-15T21:27:37.532Z,19.01
2022-09-15T21:32:40.879Z,19.39
2022-09-15T21:37:44.195Z,19.46
2022-09-15T21:42:49.406Z,19.23
2022-09-15T21:47:52.978Z,19.14
2022-09-15T21:52:56.366Z,19.71
2022-09-15T21:58:01.207Z,19.40
2022-09-15T22:03:04.796Z,19.65
2022-09-15T22:08:10.366Z,19.35
2022-09-15T22:13:15.116Z,19.38
2022-09-15T22:18:18.612Z,19.36
2022-09-15T22:23:22.011Z,19.21
2022-09-15T22:28:26.841Z,19.30
2022-09-15T22:33:30.718Z,18.65
2022-09-15T22:38:34.072Z,19.10
2022-09-15T22:43:39.272Z,19.05
2022-09-15T22:48:43.725Z,19.20
2022-09-15T22:53:47.348Z,18.27
2022-09-15T22:58:52.016Z,18.79
2022-09-15T23:03:57.178Z,18.56
2022-09-15T23:09:03.210Z,19.00
2022-09-15T23:14:09.044Z,18.57
2022-09-15T23:19:13.073Z,18.54
2022-09-15T23:24:16.992Z,18.66
2022-09-15T23:29:23.043Z,18.88
2022-09-15T23:34:26.460Z,18.77
2022-09-15T23:39:29.957Z,18.60
2022-09-15T23:44:34.741Z,18.22
2022-09-15T23:49:38.173Z,18.85
2022-09-15T23:54:41.622Z,18.72
2022-09-15T23:59:46.395Z,18.86
